sensor_id;sensor_type;location;lat;lon;timestamp;P1;durP1;ratioP1;P2;durP2;ratioP2
9940;SDS011;5009;50.656;7.188;2023-06-14T04:00:22;7.33;;;5.97;;
9940;SDS011;5009;50.656;7.188;2023-06-14T04:02:48;6.77;;;6.17;;
9940;SDS011;5009;50.656;7.188;2023-06-14T04:05:13;5.93;;;5.43;;
9940;SDS011;5009;50.656;7.188;2023-06-14T04:07:41;6.20;;;5.70;;
9940;SDS011;5009;50.656;7.188;2023-06-14T04:10:13;5.97;;;5.40;;
9940;SDS011;5009;50.656;7.188;2023-06-14T04:12:45;6.97;;;5.70;;
9940;SDS011;5009;50.656;7.188;2023-06-14T04:15:10;6.30;;;5.50;;
9940;SDS011;5009;50.656;7.188;2023-06-14T04:17:37;6.03;;;5.53;;
9940;SDS011;5009;50.656;7.188;2023-06-14T04:20:08;6.80;;;6.20;;
9940;SDS011;5009;50.656;7.188;2023-06-14T04:22:35;7.53;;;6.40;;
9940;SDS011;5009;50.656;7.188;2023-06-14T04:25:01;6.50;;;5.80;;
9940;SDS011;5009;50.656;7.188;2023-06-14T04:27:27;5.70;;;5.20;;
9940;SDS011;5009;50.656;7.188;2023-06-14T04:29:55;6.20;;;5.70;;
9940;SDS011;5009;50.656;7.188;2023-06-14T04:32:27;7.00;;;5.93;;
9940;SDS011;5009;50.656;7.188;2023-06-14T04:34:54;5.73;;;5.30;;
9940;SDS011;5009;50.656;7.188;2023-06-14T04:37:20;6.87;;;5.10;;
9940;SDS011;5009;50.656;7.188;2023-06-14T04:39:47;8.90;;;6.40;;
9940;SDS011;5009;50.656;7.188;2023-06-14T04:42:13;6.33;;;5.80;;
9940;SDS011;5009;50.656;7.188;2023-06-14T04:44:40;5.88;;;5.38;;
9940;SDS011;5009;50.656;7.188;2023-06-14T04:47:06;6.40;;;5.80;;
9940;SDS011;5009;50.656;7.188;2023-06-14T04:49:32;7.05;;;5.50;;
9940;SDS011;5009;50.656;7.188;2023-06-14T04:51:58;6.90;;;5.85;;
9940;SDS011;5009;50.656;7.188;2023-06-14T04:54:26;7.53;;;5.90;;
9940;SDS011;5009;50.656;7.188;2023-06-14T04:56:52;6.00;;;5.47;;
9940;SDS011;5009;50.656;7.188;2023-06-14T04:59:20;7.72;;;5.45;;
9940;SDS011;5009;50.656;7.188;2023-06-14T05:01:48;8.02;;;5.80;;
9940;SDS011;5009;50.656;7.188;2023-06-14T05:04:14;6.68;;;5.85;;
9940;SDS011;5009;50.656;7.188;2023-06-14T05:06:44;5.75;;;5.13;;
9940;SDS011;5009;50.656;7.188;2023-06-14T05:09:10;7.13;;;5.45;;
9940;SDS011;5009;50.656;7.188;2023-06-14T05:11:38;6.35;;;5.70;;
9940;SDS011;5009;50.656;7.188;2023-06-14T05:14:03;5.60;;;5.00;;
9940;SDS011;5009;50.656;7.188;2023-06-14T05:16:29;6.10;;;5.35;;
9940;SDS011;5009;50.656;7.188;2023-06-14T05:18:55;6.97;;;5.53;;
9940;SDS011;5009;50.656;7.188;2023-06-14T05:21:20;5.75;;;5.25;;
9940;SDS011;5009;50.656;7.188;2023-06-14T05:23:46;8.70;;;5.60;;
9940;SDS011;5009;50.656;7.188;2023-06-14T05:26:12;5.53;;;5.10;;
9940;SDS011;5009;50.656;7.188;2023-06-14T05:28:37;9.57;;;6.00;;
9940;SDS011;5009;50.656;7.188;2023-06-14T05:31:03;6.22;;;5.57;;
9940;SDS011;5009;50.656;7.188;2023-06-14T05:33:29;6.72;;;5.70;;
9940;SDS011;5009;50.656;7.188;2023-06-14T05:35:54;7.10;;;5.63;;
9940;SDS011;5009;50.656;7.188;2023-06-14T05:38:20;6.00;;;5.35;;
9940;SDS011;5009;50.656;7.188;2023-06-14T05:40:46;6.35;;;5.78;;
9940;SDS011;5009;50.656;7.188;2023-06-14T05:43:11;5.97;;;5.47;;
9940;SDS011;5009;50.656;7.188;2023-06-14T05:45:37;5.70;;;5.03;;
9940;SDS011;5009;50.656;7.188;2023-06-14T05:48:03;7.13;;;5.63;;
9940;SDS011;5009;50.656;7.188;2023-06-14T05:50:28;7.57;;;5.65;;
9940;SDS011;5009;50.656;7.188;2023-06-14T05:52:55;6.63;;;4.78;;
9940;SDS011;5009;50.656;7.188;2023-06-14T05:55:20;6.78;;;5.50;;
9940;SDS011;5009;50.656;7.188;2023-06-14T05:57:46;6.75;;;4.90;;
9940;SDS011;5009;50.656;7.188;2023-06-14T06:00:13;5.50;;;4.60;;
9940;SDS011;5009;50.656;7.188;2023-06-14T06:02:42;6.10;;;4.88;;
9940;SDS011;5009;50.656;7.188;2023-06-14T06:05:11;5.10;;;4.65;;
9940;SDS011;5009;50.656;7.188;2023-06-14T06:07:37;6.05;;;5.45;;
9940;SDS011;5009;50.656;7.188;2023-06-14T06:10:05;5.00;;;4.70;;
9940;SDS011;5009;50.656;7.188;2023-06-14T06:12:31;5.72;;;5.15;;
9940;SDS011;5009;50.656;7.188;2023-06-14T06:14:57;5.57;;;5.03;;
9940;SDS011;5009;50.656;7.188;2023-06-14T06:17:24;5.32;;;4.93;;
9940;SDS011;5009;50.656;7.188;2023-06-14T06:19:50;5.75;;;5.25;;
9940;SDS011;5009;50.656;7.188;2023-06-14T06:22:16;6.18;;;5.45;;
9940;SDS011;5009;50.656;7.188;2023-06-14T06:24:42;7.97;;;5.28;;
9940;SDS011;5009;50.656;7.188;2023-06-14T06:27:08;5.57;;;5.10;;
9940;SDS011;5009;50.656;7.188;2023-06-14T06:29:33;6.68;;;4.75;;
9940;SDS011;5009;50.656;7.188;2023-06-14T06:32:00;5.30;;;4.90;;
9940;SDS011;5009;50.656;7.188;2023-06-14T06:34:26;6.90;;;5.20;;
9940;SDS011;5009;50.656;7.188;2023-06-14T06:36:52;5.55;;;5.05;;
9940;SDS011;5009;50.656;7.188;2023-06-14T06:39:17;11.00;;;5.03;;
9940;SDS011;5009;50.656;7.188;2023-06-14T06:41:43;6.57;;;4.47;;
9940;SDS011;5009;50.656;7.188;2023-06-14T06:44:09;4.88;;;4.47;;
9940;SDS011;5009;50.656;7.188;2023-06-14T06:46:37;5.45;;;4.95;;
9940;SDS011;5009;50.656;7.188;2023-06-14T06:49:05;4.65;;;4.35;;
9940;SDS011;5009;50.656;7.188;2023-06-14T06:51:31;5.43;;;4.55;;
9940;SDS011;5009;50.656;7.188;2023-06-14T06:53:58;6.28;;;4.72;;
9940;SDS011;5009;50.656;7.188;2023-06-14T06:56:23;5.63;;;5.13;;
9940;SDS011;5009;50.656;7.188;2023-06-14T06:58:52;5.20;;;4.80;;
9940;SDS011;5009;50.656;7.188;2023-06-14T07:01:18;7.90;;;4.90;;
9940;SDS011;5009;50.656;7.188;2023-06-14T07:03:46;5.85;;;4.75;;
9940;SDS011;5009;50.656;7.188;2023-06-14T07:06:12;5.18;;;4.65;;
9940;SDS011;5009;50.656;7.188;2023-06-14T07:08:37;6.50;;;4.88;;
9940;SDS011;5009;50.656;7.188;2023-06-14T07:11:03;5.93;;;4.60;;
9940;SDS011;5009;50.656;7.188;2023-06-14T07:13:30;5.32;;;4.65;;
9940;SDS011;5009;50.656;7.188;2023-06-14T07:15:57;5.47;;;4.93;;
9940;SDS011;5009;50.656;7.188;2023-06-14T07:18:25;5.07;;;4.78;;
9940;SDS011;5009;50.656;7.188;2023-06-14T07:20:50;6.45;;;4.60;;
9940;SDS011;5009;50.656;7.188;2023-06-14T07:23:17;4.93;;;4.43;;
9940;SDS011;5009;50.656;7.188;2023-06-14T07:25:42;6.00;;;4.20;;
9940;SDS011;5009;50.656;7.188;2023-06-14T07:28:08;5.93;;;4.00;;
9940;SDS011;5009;50.656;7.188;2023-06-14T07:30:33;4.15;;;3.78;;
9940;SDS011;5009;50.656;7.188;2023-06-14T07:33:00;12.93;;;4.20;;
9940;SDS011;5009;50.656;7.188;2023-06-14T07:35:25;5.53;;;4.20;;
9940;SDS011;5009;50.656;7.188;2023-06-14T07:37:51;4.15;;;3.85;;
9940;SDS011;5009;50.656;7.188;2023-06-14T07:40:16;4.05;;;3.75;;
9940;SDS011;5009;50.656;7.188;2023-06-14T07:42:42;8.27;;;4.10;;
9940;SDS011;5009;50.656;7.188;2023-06-14T07:45:08;4.05;;;3.83;;
9940;SDS011;5009;50.656;7.188;2023-06-14T07:47:34;3.83;;;3.50;;
9940;SDS011;5009;50.656;7.188;2023-06-14T07:49:59;4.85;;;3.42;;
9940;SDS011;5009;50.656;7.188;2023-06-14T07:52:25;5.82;;;3.67;;
9940;SDS011;5009;50.656;7.188;2023-06-14T07:54:51;3.38;;;3.17;;
9940;SDS011;5009;50.656;7.188;2023-06-14T07:57:16;4.05;;;3.70;;
9940;SDS011;5009;50.656;7.188;2023-06-14T07:59:44;3.88;;;3.58;;
9940;SDS011;5009;50.656;7.188;2023-06-14T08:02:10;3.17;;;2.88;;
9940;SDS011;5009;50.656;7.188;2023-06-14T08:04:36;3.58;;;3.28;;
9940;SDS011;5009;50.656;7.188;2023-06-14T08:07:02;4.68;;;3.05;;
9940;SDS011;5009;50.656;7.188;2023-06-14T08:09:27;3.92;;;3.47;;
9940;SDS011;5009;50.656;7.188;2023-06-14T08:11:54;3.50;;;3.30;;
9940;SDS011;5009;50.656;7.188;2023-06-14T08:14:20;4.00;;;3.28;;
9940;SDS011;5009;50.656;7.188;2023-06-14T08:16:45;3.60;;;3.40;;
9940;SDS011;5009;50.656;7.188;2023-06-14T08:19:11;3.20;;;2.83;;
9940;SDS011;5009;50.656;7.188;2023-06-14T08:21:37;3.60;;;3.30;;
9940;SDS011;5009;50.656;7.188;2023-06-14T08:24:02;3.55;;;2.72;;
9940;SDS011;5009;50.656;7.188;2023-06-14T08:26:29;7.68;;;2.88;;
9940;SDS011;5009;50.656;7.188;2023-06-14T08:28:55;5.55;;;2.85;;
9940;SDS011;5009;50.656;7.188;2023-06-14T08:31:21;2.83;;;2.50;;
9940;SDS011;5009;50.656;7.188;2023-06-14T08:33:47;3.40;;;2.85;;
9940;SDS011;5009;50.656;7.188;2023-06-14T08:36:12;2.92;;;2.67;;
9940;SDS011;5009;50.656;7.188;2023-06-14T08:38:38;2.80;;;2.53;;
9940;SDS011;5009;50.656;7.188;2023-06-14T08:41:04;3.00;;;2.78;;
9940;SDS011;5009;50.656;7.188;2023-06-14T08:43:31;3.72;;;2.53;;
9940;SDS011;5009;50.656;7.188;2023-06-14T08:46:00;3.00;;;2.80;;
9940;SDS011;5009;50.656;7.188;2023-06-14T08:48:28;2.72;;;2.58;;
9940;SDS011;5009;50.656;7.188;2023-06-14T08:50:57;3.03;;;2.83;;
9940;SDS011;5009;50.656;7.188;2023-06-14T08:53:30;3.00;;;2.50;;
9940;SDS011;5009;50.656;7.188;2023-06-14T08:55:59;2.63;;;2.42;;
9940;SDS011;5009;50.656;7.188;2023-06-14T08:58:27;5.28;;;2.58;;
9940;SDS011;5009;50.656;7.188;2023-06-14T09:00:59;3.25;;;2.80;;
9940;SDS011;5009;50.656;7.188;2023-06-14T09:03:29;3.22;;;2.75;;
9940;SDS011;5009;50.656;7.188;2023-06-14T09:05:58;3.63;;;2.63;;
9940;SDS011;5009;50.656;7.188;2023-06-14T09:08:25;3.40;;;2.90;;
9940;SDS011;5009;50.656;7.188;2023-06-14T09:10:55;3.47;;;3.17;;
9940;SDS011;5009;50.656;7.188;2023-06-14T09:13:21;3.08;;;2.78;;
9940;SDS011;5009;50.656;7.188;2023-06-14T09:15:47;2.92;;;2.72;;
9940;SDS011;5009;50.656;7.188;2023-06-14T09:18:12;3.30;;;3.03;;
9940;SDS011;5009;50.656;7.188;2023-06-14T09:20:38;4.93;;;3.10;;
9940;SDS011;5009;50.656;7.188;2023-06-14T09:23:05;2.95;;;2.75;;
9940;SDS011;5009;50.656;7.188;2023-06-14T09:25:32;3.15;;;2.95;;
9940;SDS011;5009;50.656;7.188;2023-06-14T09:27:58;4.43;;;2.90;;
9940;SDS011;5009;50.656;7.188;2023-06-14T09:30:23;3.20;;;2.92;;
9940;SDS011;5009;50.656;7.188;2023-06-14T09:32:49;3.15;;;2.90;;
9940;SDS011;5009;50.656;7.188;2023-06-14T09:35:16;3.47;;;2.95;;
9940;SDS011;5009;50.656;7.188;2023-06-14T09:37:43;3.90;;;3.20;;
9940;SDS011;5009;50.656;7.188;2023-06-14T09:40:09;3.00;;;2.80;;
9940;SDS011;5009;50.656;7.188;2023-06-14T09:42:35;2.90;;;2.70;;
9940;SDS011;5009;50.656;7.188;2023-06-14T09:45:02;2.60;;;2.40;;
9940;SDS011;5009;50.656;7.188;2023-06-14T09:47:28;3.03;;;2.60;;
9940;SDS011;5009;50.656;7.188;2023-06-14T09:49:53;3.20;;;3.00;;
9940;SDS011;5009;50.656;7.188;2023-06-14T09:52:21;2.80;;;2.50;;
9940;SDS011;5009;50.656;7.188;2023-06-14T09:54:48;3.83;;;2.50;;
9940;SDS011;5009;50.656;7.188;2023-06-14T09:57:15;2.70;;;2.50;;
9940;SDS011;5009;50.656;7.188;2023-06-14T09:59:45;4.57;;;2.60;;
9940;SDS011;5009;50.656;7.188;2023-06-14T10:04:54;2.90;;;2.70;;
9940;SDS011;5009;50.656;7.188;2023-06-14T10:07:25;2.92;;;2.42;;
9940;SDS011;5009;50.656;7.188;2023-06-14T10:09:55;2.78;;;2.58;;
9940;SDS011;5009;50.656;7.188;2023-06-14T10:12:21;2.63;;;2.45;;
9940;SDS011;5009;50.656;7.188;2023-06-14T10:14:48;2.90;;;2.70;;
9940;SDS011;5009;50.656;7.188;2023-06-14T10:17:35;3.25;;;2.60;;
9940;SDS011;5009;50.656;7.188;2023-06-14T10:22:51;3.10;;;2.80;;
9940;SDS011;5009;50.656;7.188;2023-06-14T10:25:28;3.22;;;2.60;;
9940;SDS011;5009;50.656;7.188;2023-06-14T10:30:38;4.93;;;3.10;;
9940;SDS011;5009;50.656;7.188;2023-06-14T10:33:04;7.45;;;2.78;;
9940;SDS011;5009;50.656;7.188;2023-06-14T10:35:34;2.97;;;2.63;;
9940;SDS011;5009;50.656;7.188;2023-06-14T10:38:07;3.65;;;2.90;;
9940;SDS011;5009;50.656;7.188;2023-06-14T10:40:34;2.80;;;2.50;;
9940;SDS011;5009;50.656;7.188;2023-06-14T10:43:01;2.75;;;2.55;;
9940;SDS011;5009;50.656;7.188;2023-06-14T10:48:48;3.80;;;2.88;;
9940;SDS011;5009;50.656;7.188;2023-06-14T10:53:49;2.60;;;2.40;;
9940;SDS011;5009;50.656;7.188;2023-06-14T10:56:29;3.30;;;2.65;;
9940;SDS011;5009;50.656;7.188;2023-06-14T10:58:56;3.00;;;2.67;;
9940;SDS011;5009;50.656;7.188;2023-06-14T11:01:31;2.90;;;2.70;;
9940;SDS011;5009;50.656;7.188;2023-06-14T11:04:08;3.78;;;2.63;;
9940;SDS011;5009;50.656;7.188;2023-06-14T11:06:45;6.18;;;2.90;;
9940;SDS011;5009;50.656;7.188;2023-06-14T11:09:40;2.83;;;2.58;;
9940;SDS011;5009;50.656;7.188;2023-06-14T11:12:13;2.50;;;2.30;;
9940;SDS011;5009;50.656;7.188;2023-06-14T11:14:40;2.63;;;2.42;;
9940;SDS011;5009;50.656;7.188;2023-06-14T11:17:06;2.60;;;2.35;;
9940;SDS011;5009;50.656;7.188;2023-06-14T11:19:31;2.40;;;2.20;;
9940;SDS011;5009;50.656;7.188;2023-06-14T11:21:57;2.25;;;2.15;;
9940;SDS011;5009;50.656;7.188;2023-06-14T11:24:23;2.13;;;2.03;;
9940;SDS011;5009;50.656;7.188;2023-06-14T11:26:49;2.53;;;2.30;;
9940;SDS011;5009;50.656;7.188;2023-06-14T11:29:15;1.90;;;1.80;;
9940;SDS011;5009;50.656;7.188;2023-06-14T11:31:45;2.53;;;2.10;;
9940;SDS011;5009;50.656;7.188;2023-06-14T11:34:11;2.00;;;1.90;;
9940;SDS011;5009;50.656;7.188;2023-06-14T11:36:38;3.60;;;1.92;;
9940;SDS011;5009;50.656;7.188;2023-06-14T11:39:04;2.30;;;1.90;;
9940;SDS011;5009;50.656;7.188;2023-06-14T11:41:37;3.40;;;2.40;;
9940;SDS011;5009;50.656;7.188;2023-06-14T11:44:05;3.25;;;2.30;;
9940;SDS011;5009;50.656;7.188;2023-06-14T11:46:31;2.92;;;2.40;;
9940;SDS011;5009;50.656;7.188;2023-06-14T11:48:57;2.20;;;2.10;;
9940;SDS011;5009;50.656;7.188;2023-06-14T11:51:23;2.05;;;1.95;;
9940;SDS011;5009;50.656;7.188;2023-06-14T11:53:48;5.72;;;2.20;;
9940;SDS011;5009;50.656;7.188;2023-06-14T11:56:14;3.92;;;2.35;;
9940;SDS011;5009;50.656;7.188;2023-06-14T11:58:42;2.05;;;1.95;;
9940;SDS011;5009;50.656;7.188;2023-06-14T12:01:08;2.45;;;2.25;;
9940;SDS011;5009;50.656;7.188;2023-06-14T12:03:34;2.63;;;2.50;;
9940;SDS011;5009;50.656;7.188;2023-06-14T12:06:07;3.38;;;1.90;;
9940;SDS011;5009;50.656;7.188;2023-06-14T12:08:37;2.35;;;2.25;;
9940;SDS011;5009;50.656;7.188;2023-06-14T12:11:06;1.90;;;1.85;;
9940;SDS011;5009;50.656;7.188;2023-06-14T12:13:33;2.20;;;1.98;;
9940;SDS011;5009;50.656;7.188;2023-06-14T12:15:59;2.00;;;1.90;;
9940;SDS011;5009;50.656;7.188;2023-06-14T12:18:33;2.20;;;2.10;;
9940;SDS011;5009;50.656;7.188;2023-06-14T12:21:03;2.08;;;1.98;;
9940;SDS011;5009;50.656;7.188;2023-06-14T12:23:39;2.65;;;2.10;;
9940;SDS011;5009;50.656;7.188;2023-06-14T12:26:11;2.03;;;1.92;;
9940;SDS011;5009;50.656;7.188;2023-06-14T12:28:39;4.57;;;2.17;;
9940;SDS011;5009;50.656;7.188;2023-06-14T12:31:06;2.88;;;1.90;;
9940;SDS011;5009;50.656;7.188;2023-06-14T12:33:32;4.03;;;1.95;;
9940;SDS011;5009;50.656;7.188;2023-06-14T12:35:57;3.63;;;2.50;;
9940;SDS011;5009;50.656;7.188;2023-06-14T12:38:24;2.92;;;2.40;;
9940;SDS011;5009;50.656;7.188;2023-06-14T12:40:49;2.33;;;2.22;;
9940;SDS011;5009;50.656;7.188;2023-06-14T12:43:15;1.80;;;1.70;;
9940;SDS011;5009;50.656;7.188;2023-06-14T12:45:40;1.90;;;1.80;;
9940;SDS011;5009;50.656;7.188;2023-06-14T12:48:06;2.40;;;2.10;;
9940;SDS011;5009;50.656;7.188;2023-06-14T12:50:33;2.75;;;2.30;;
9940;SDS011;5009;50.656;7.188;2023-06-14T12:52:59;2.70;;;2.50;;
9940;SDS011;5009;50.656;7.188;2023-06-14T12:55:25;2.20;;;2.10;;
9940;SDS011;5009;50.656;7.188;2023-06-14T12:57:50;3.25;;;2.40;;
9940;SDS011;5009;50.656;7.188;2023-06-14T13:00:16;4.93;;;2.10;;
9940;SDS011;5009;50.656;7.188;2023-06-14T13:02:43;4.82;;;2.63;;
9940;SDS011;5009;50.656;7.188;2023-06-14T13:05:09;3.75;;;2.50;;
9940;SDS011;5009;50.656;7.188;2023-06-14T13:07:34;4.25;;;2.60;;
9940;SDS011;5009;50.656;7.188;2023-06-14T13:10:00;3.03;;;2.83;;
9940;SDS011;5009;50.656;7.188;2023-06-14T13:12:26;4.35;;;2.47;;
9940;SDS011;5009;50.656;7.188;2023-06-14T13:14:51;3.08;;;2.78;;
9940;SDS011;5009;50.656;7.188;2023-06-14T13:17:17;2.90;;;2.53;;
9940;SDS011;5009;50.656;7.188;2023-06-14T13:19:42;2.92;;;2.60;;
9940;SDS011;5009;50.656;7.188;2023-06-14T13:22:08;3.50;;;2.40;;
9940;SDS011;5009;50.656;7.188;2023-06-14T13:24:34;3.63;;;2.47;;
9940;SDS011;5009;50.656;7.188;2023-06-14T13:27:00;2.80;;;2.60;;
9940;SDS011;5009;50.656;7.188;2023-06-14T13:29:25;4.57;;;2.63;;
9940;SDS011;5009;50.656;7.188;2023-06-14T13:31:52;4.30;;;3.22;;
9940;SDS011;5009;50.656;7.188;2023-06-14T13:34:18;2.88;;;2.65;;
9940;SDS011;5009;50.656;7.188;2023-06-14T13:36:43;3.17;;;2.75;;
9940;SDS011;5009;50.656;7.188;2023-06-14T13:39:09;2.72;;;2.58;;
9940;SDS011;5009;50.656;7.188;2023-06-14T13:41:36;2.90;;;2.70;;
9940;SDS011;5009;50.656;7.188;2023-06-14T13:44:02;4.25;;;2.90;;
9940;SDS011;5009;50.656;7.188;2023-06-14T13:46:30;4.97;;;2.92;;
9940;SDS011;5009;50.656;7.188;2023-06-14T13:48:56;2.97;;;2.50;;
9940;SDS011;5009;50.656;7.188;2023-06-14T13:51:29;2.70;;;2.50;;
9940;SDS011;5009;50.656;7.188;2023-06-14T13:53:55;3.08;;;2.88;;
9940;SDS011;5009;50.656;7.188;2023-06-14T13:56:20;2.95;;;2.72;;
9940;SDS011;5009;50.656;7.188;2023-06-14T13:58:47;3.03;;;2.78;;
9940;SDS011;5009;50.656;7.188;2023-06-14T14:01:13;3.40;;;2.90;;
9940;SDS011;5009;50.656;7.188;2023-06-14T14:03:38;3.78;;;2.78;;
9940;SDS011;5009;50.656;7.188;2023-06-14T14:06:04;3.25;;;2.83;;
9940;SDS011;5009;50.656;7.188;2023-06-14T14:08:30;2.65;;;2.45;;
9940;SDS011;5009;50.656;7.188;2023-06-14T14:10:56;4.60;;;2.70;;
9940;SDS011;5009;50.656;7.188;2023-06-14T14:13:22;2.70;;;2.60;;
9940;SDS011;5009;50.656;7.188;2023-06-14T14:15:47;4.47;;;2.53;;
9940;SDS011;5009;50.656;7.188;2023-06-14T14:18:16;5.32;;;2.53;;
9940;SDS011;5009;50.656;7.188;2023-06-14T14:20:42;3.13;;;2.92;;
9940;SDS011;5009;50.656;7.188;2023-06-14T14:23:07;3.03;;;2.83;;
9940;SDS011;5009;50.656;7.188;2023-06-14T14:25:33;2.90;;;2.65;;
9940;SDS011;5009;50.656;7.188;2023-06-14T14:27:58;3.13;;;2.88;;
9940;SDS011;5009;50.656;7.188;2023-06-14T14:30:24;3.08;;;2.88;;
9940;SDS011;5009;50.656;7.188;2023-06-14T14:32:50;3.08;;;2.83;;
9940;SDS011;5009;50.656;7.188;2023-06-14T14:35:16;4.60;;;2.90;;
9940;SDS011;5009;50.656;7.188;2023-06-14T14:37:42;3.45;;;2.63;;
9940;SDS011;5009;50.656;7.188;2023-06-14T14:40:08;3.33;;;2.80;;
9940;SDS011;5009;50.656;7.188;2023-06-14T14:42:35;3.17;;;2.90;;
9940;SDS011;5009;50.656;7.188;2023-06-14T14:45:03;3.15;;;2.80;;
9940;SDS011;5009;50.656;7.188;2023-06-14T14:47:29;3.22;;;3.03;;
9940;SDS011;5009;50.656;7.188;2023-06-14T14:49:55;3.08;;;2.88;;
9940;SDS011;5009;50.656;7.188;2023-06-14T14:52:20;3.08;;;2.70;;
9940;SDS011;5009;50.656;7.188;2023-06-14T14:54:46;3.30;;;2.55;;
9940;SDS011;5009;50.656;7.188;2023-06-14T14:57:11;3.58;;;2.55;;
9940;SDS011;5009;50.656;7.188;2023-06-14T14:59:37;3.35;;;3.05;;
9940;SDS011;5009;50.656;7.188;2023-06-14T15:02:02;2.85;;;2.65;;
9940;SDS011;5009;50.656;7.188;2023-06-14T15:04:28;3.20;;;2.95;;
9940;SDS011;5009;50.656;7.188;2023-06-14T15:06:53;3.67;;;2.63;;
9940;SDS011;5009;50.656;7.188;2023-06-14T15:09:19;3.13;;;2.92;;
9940;SDS011;5009;50.656;7.188;2023-06-14T15:11:45;3.10;;;2.85;;
9940;SDS011;5009;50.656;7.188;2023-06-14T15:14:10;3.78;;;2.78;;
9940;SDS011;5009;50.656;7.188;2023-06-14T15:16:36;3.67;;;3.08;;
9940;SDS011;5009;50.656;7.188;2023-06-14T15:19:02;4.30;;;2.80;;
9940;SDS011;5009;50.656;7.188;2023-06-14T15:21:27;2.75;;;2.50;;
9940;SDS011;5009;50.656;7.188;2023-06-14T15:23:53;3.10;;;2.90;;
9940;SDS011;5009;50.656;7.188;2023-06-14T15:26:19;3.08;;;2.88;;
9940;SDS011;5009;50.656;7.188;2023-06-14T15:28:45;3.28;;;3.08;;
9940;SDS011;5009;50.656;7.188;2023-06-14T15:31:10;3.20;;;3.00;;
9940;SDS011;5009;50.656;7.188;2023-06-14T15:33:36;3.60;;;2.90;;
9940;SDS011;5009;50.656;7.188;2023-06-14T15:36:02;3.55;;;2.75;;
9940;SDS011;5009;50.656;7.188;2023-06-14T15:38:27;3.90;;;2.80;;
9940;SDS011;5009;50.656;7.188;2023-06-14T15:40:53;3.65;;;2.72;;
9940;SDS011;5009;50.656;7.188;2023-06-14T15:43:19;3.50;;;2.90;;
9940;SDS011;5009;50.656;7.188;2023-06-14T15:45:45;7.15;;;3.47;;
9940;SDS011;5009;50.656;7.188;2023-06-14T15:48:10;3.15;;;2.95;;
9940;SDS011;5009;50.656;7.188;2023-06-14T15:50:36;3.40;;;3.15;;
9940;SDS011;5009;50.656;7.188;2023-06-14T15:53:02;3.22;;;2.70;;
9940;SDS011;5009;50.656;7.188;2023-06-14T15:55:27;3.05;;;2.85;;
9940;SDS011;5009;50.656;7.188;2023-06-14T15:57:53;2.83;;;2.70;;
9940;SDS011;5009;50.656;7.188;2023-06-14T16:00:19;3.13;;;2.90;;
9940;SDS011;5009;50.656;7.188;2023-06-14T16:02:46;5.97;;;2.90;;
9940;SDS011;5009;50.656;7.188;2023-06-14T16:05:12;3.08;;;2.80;;
9940;SDS011;5009;50.656;7.188;2023-06-14T16:07:38;3.10;;;2.90;;
9940;SDS011;5009;50.656;7.188;2023-06-14T16:10:04;4.05;;;2.85;;
9940;SDS011;5009;50.656;7.188;2023-06-14T16:12:29;4.07;;;2.80;;
9940;SDS011;5009;50.656;7.188;2023-06-14T16:14:55;2.92;;;2.75;;
9940;SDS011;5009;50.656;7.188;2023-06-14T16:17:20;2.95;;;2.75;;
9940;SDS011;5009;50.656;7.188;2023-06-14T16:19:46;3.05;;;2.85;;
9940;SDS011;5009;50.656;7.188;2023-06-14T16:22:12;3.42;;;3.22;;
9940;SDS011;5009;50.656;7.188;2023-06-14T16:24:37;6.72;;;3.40;;
9940;SDS011;5009;50.656;7.188;2023-06-14T16:27:03;4.25;;;3.30;;
9940;SDS011;5009;50.656;7.188;2023-06-14T16:29:31;3.33;;;3.03;;
9940;SDS011;5009;50.656;7.188;2023-06-14T16:31:57;6.28;;;3.10;;
9940;SDS011;5009;50.656;7.188;2023-06-14T16:34:22;4.00;;;3.15;;
9940;SDS011;5009;50.656;7.188;2023-06-14T16:36:48;3.28;;;3.03;;
9940;SDS011;5009;50.656;7.188;2023-06-14T16:39:14;3.22;;;2.92;;
9940;SDS011;5009;50.656;7.188;2023-06-14T16:41:40;3.63;;;3.22;;
9940;SDS011;5009;50.656;7.188;2023-06-14T16:44:05;4.32;;;3.05;;
9940;SDS011;5009;50.656;7.188;2023-06-14T16:46:31;3.35;;;3.15;;
9940;SDS011;5009;50.656;7.188;2023-06-14T16:48:58;3.40;;;3.10;;
9940;SDS011;5009;50.656;7.188;2023-06-14T16:51:24;6.10;;;3.13;;
9940;SDS011;5009;50.656;7.188;2023-06-14T16:53:50;3.05;;;2.85;;
9940;SDS011;5009;50.656;7.188;2023-06-14T16:56:17;2.90;;;2.70;;
9940;SDS011;5009;50.656;7.188;2023-06-14T16:58:44;3.28;;;2.97;;
9940;SDS011;5009;50.656;7.188;2023-06-14T17:01:10;4.03;;;2.92;;
9940;SDS011;5009;50.656;7.188;2023-06-14T17:03:36;3.10;;;2.88;;
9940;SDS011;5009;50.656;7.188;2023-06-14T17:06:01;4.32;;;3.25;;
9940;SDS011;5009;50.656;7.188;2023-06-14T17:08:27;3.45;;;2.75;;
9940;SDS011;5009;50.656;7.188;2023-06-14T17:10:53;3.55;;;3.22;;
9940;SDS011;5009;50.656;7.188;2023-06-14T17:13:21;3.13;;;2.92;;
9940;SDS011;5009;50.656;7.188;2023-06-14T17:15:47;3.10;;;2.90;;
9940;SDS011;5009;50.656;7.188;2023-06-14T17:18:13;3.30;;;2.90;;
9940;SDS011;5009;50.656;7.188;2023-06-14T17:20:39;3.70;;;2.92;;
9940;SDS011;5009;50.656;7.188;2023-06-14T17:23:04;3.38;;;2.92;;
9940;SDS011;5009;50.656;7.188;2023-06-14T17:25:30;3.42;;;3.17;;
9940;SDS011;5009;50.656;7.188;2023-06-14T17:27:55;2.80;;;2.65;;
9940;SDS011;5009;50.656;7.188;2023-06-14T17:30:22;3.35;;;3.05;;
9940;SDS011;5009;50.656;7.188;2023-06-14T17:32:47;3.22;;;3.03;;
9940;SDS011;5009;50.656;7.188;2023-06-14T17:35:13;3.58;;;3.03;;
9940;SDS011;5009;50.656;7.188;2023-06-14T17:37:39;3.35;;;3.15;;
9940;SDS011;5009;50.656;7.188;2023-06-14T17:40:05;3.72;;;3.25;;
9940;SDS011;5009;50.656;7.188;2023-06-14T17:42:31;3.92;;;3.50;;
9940;SDS011;5009;50.656;7.188;2023-06-14T17:44:57;3.42;;;3.05;;
9940;SDS011;5009;50.656;7.188;2023-06-14T17:47:23;3.20;;;3.00;;
9940;SDS011;5009;50.656;7.188;2023-06-14T17:49:49;4.28;;;2.97;;
9940;SDS011;5009;50.656;7.188;2023-06-14T17:52:17;3.33;;;2.97;;
9940;SDS011;5009;50.656;7.188;2023-06-14T17:54:43;6.28;;;3.30;;
9940;SDS011;5009;50.656;7.188;2023-06-14T17:57:09;3.28;;;3.03;;
9940;SDS011;5009;50.656;7.188;2023-06-14T17:59:36;3.22;;;2.92;;
9940;SDS011;5009;50.656;7.188;2023-06-14T18:02:01;3.30;;;3.00;;
9940;SDS011;5009;50.656;7.188;2023-06-14T18:04:28;3.13;;;2.92;;
9940;SDS011;5009;50.656;7.188;2023-06-14T18:06:53;3.05;;;2.85;;
9940;SDS011;5009;50.656;7.188;2023-06-14T18:09:20;3.88;;;3.50;;
9940;SDS011;5009;50.656;7.188;2023-06-14T18:11:46;3.63;;;3.33;;
9940;SDS011;5009;50.656;7.188;2023-06-14T18:14:11;3.25;;;3.00;;
9940;SDS011;5009;50.656;7.188;2023-06-14T18:16:37;4.25;;;3.20;;
9940;SDS011;5009;50.656;7.188;2023-06-14T18:19:05;3.95;;;3.58;;
9940;SDS011;5009;50.656;7.188;2023-06-14T18:21:32;3.13;;;2.92;;
9940;SDS011;5009;50.656;7.188;2023-06-14T18:23:58;3.72;;;3.10;;
9940;SDS011;5009;50.656;7.188;2023-06-14T18:26:24;3.50;;;3.30;;
9940;SDS011;5009;50.656;7.188;2023-06-14T18:28:56;3.17;;;2.92;;
9940;SDS011;5009;50.656;7.188;2023-06-14T18:31:21;3.90;;;3.15;;
9940;SDS011;5009;50.656;7.188;2023-06-14T18:33:47;5.55;;;3.10;;
9940;SDS011;5009;50.656;7.188;2023-06-14T18:36:12;4.45;;;2.80;;
9940;SDS011;5009;50.656;7.188;2023-06-14T18:38:38;7.55;;;3.20;;
9940;SDS011;5009;50.656;7.188;2023-06-14T18:41:04;5.18;;;3.28;;
9940;SDS011;5009;50.656;7.188;2023-06-14T18:43:29;3.30;;;3.03;;
9940;SDS011;5009;50.656;7.188;2023-06-14T18:45:57;3.53;;;3.03;;
9940;SDS011;5009;50.656;7.188;2023-06-14T18:48:24;3.53;;;3.22;;
9940;SDS011;5009;50.656;7.188;2023-06-14T18:50:49;3.05;;;2.83;;
9940;SDS011;5009;50.656;7.188;2023-06-14T18:53:15;3.40;;;3.10;;
9940;SDS011;5009;50.656;7.188;2023-06-14T18:55:41;3.42;;;3.10;;
9940;SDS011;5009;50.656;7.188;2023-06-14T18:58:08;3.25;;;3.05;;
9940;SDS011;5009;50.656;7.188;2023-06-14T19:00:34;6.03;;;3.33;;
9940;SDS011;5009;50.656;7.188;2023-06-14T19:03:00;3.20;;;2.90;;
9940;SDS011;5009;50.656;7.188;2023-06-14T19:05:28;3.60;;;3.30;;
9940;SDS011;5009;50.656;7.188;2023-06-14T19:07:54;5.28;;;3.13;;
9940;SDS011;5009;50.656;7.188;2023-06-14T19:10:20;3.22;;;3.03;;
9940;SDS011;5009;50.656;7.188;2023-06-14T19:12:46;5.78;;;3.33;;
9940;SDS011;5009;50.656;7.188;2023-06-14T19:15:12;5.10;;;3.03;;
9940;SDS011;5009;50.656;7.188;2023-06-14T19:17:38;4.43;;;3.30;;
9940;SDS011;5009;50.656;7.188;2023-06-14T19:20:04;2.95;;;2.75;;
9940;SDS011;5009;50.656;7.188;2023-06-14T19:22:33;3.67;;;3.35;;
9940;SDS011;5009;50.656;7.188;2023-06-14T19:24:59;3.85;;;3.55;;